sensor_id;sensor_type;location;lat;lon;timestamp;P1;durP1;ratioP1;P2;durP2;ratioP2
2219;SDS011;1116;51.502;7.414;2023-12-14T00:00:07;16.83;;;9.50;;
2219;SDS011;1116;51.502;7.414;2023-12-14T00:02:41;15.35;;;9.13;;
2219;SDS011;1116;51.502;7.414;2023-12-14T00:05:11;14.57;;;8.82;;
2219;SDS011;1116;51.502;7.414;2023-12-14T00:07:41;16.83;;;9.57;;
2219;SDS011;1116;51.502;7.414;2023-12-14T00:10:11;19.05;;;10.27;;
2219;SDS011;1116;51.502;7.414;2023-12-14T00:12:43;17.40;;;8.73;;
2219;SDS011;1116;51.502;7.414;2023-12-14T00:15:13;15.50;;;9.18;;
2219;SDS011;1116;51.502;7.414;2023-12-14T00:17:46;14.73;;;8.38;;
2219;SDS011;1116;51.502;7.414;2023-12-14T00:20:16;13.43;;;7.55;;
2219;SDS011;1116;51.502;7.414;2023-12-14T00:22:46;13.00;;;7.93;;
2219;SDS011;1116;51.502;7.414;2023-12-14T00:25:16;12.07;;;7.40;;
2219;SDS011;1116;51.502;7.414;2023-12-14T00:27:47;17.52;;;9.50;;
2219;SDS011;1116;51.502;7.414;2023-12-14T00:30:17;18.50;;;9.55;;
2219;SDS011;1116;51.502;7.414;2023-12-14T00:32:50;17.88;;;10.30;;
2219;SDS011;1116;51.502;7.414;2023-12-14T00:35:20;21.15;;;12.27;;
2219;SDS011;1116;51.502;7.414;2023-12-14T00:37:50;23.98;;;11.73;;
2219;SDS011;1116;51.502;7.414;2023-12-14T00:40:21;18.02;;;10.43;;
2219;SDS011;1116;51.502;7.414;2023-12-14T00:42:51;23.17;;;11.38;;
2219;SDS011;1116;51.502;7.414;2023-12-14T00:45:21;18.05;;;10.90;;
2219;SDS011;1116;51.502;7.414;2023-12-14T00:47:54;19.23;;;10.80;;
2219;SDS011;1116;51.502;7.414;2023-12-14T00:50:24;18.23;;;9.93;;
2219;SDS011;1116;51.502;7.414;2023-12-14T00:52:54;19.75;;;9.57;;
2219;SDS011;1116;51.502;7.414;2023-12-14T00:55:24;15.38;;;7.93;;
2219;SDS011;1116;51.502;7.414;2023-12-14T00:57:54;15.02;;;8.63;;
2219;SDS011;1116;51.502;7.414;2023-12-14T01:00:25;16.90;;;9.90;;
2219;SDS011;1116;51.502;7.414;2023-12-14T01:02:58;15.35;;;8.27;;
2219;SDS011;1116;51.502;7.414;2023-12-14T01:05:28;13.60;;;7.97;;
2219;SDS011;1116;51.502;7.414;2023-12-14T01:07:58;16.48;;;8.63;;
2219;SDS011;1116;51.502;7.414;2023-12-14T01:10:28;15.40;;;8.68;;
2219;SDS011;1116;51.502;7.414;2023-12-14T01:13:00;14.15;;;8.20;;
2219;SDS011;1116;51.502;7.414;2023-12-14T01:15:30;14.57;;;8.48;;
2219;SDS011;1116;51.502;7.414;2023-12-14T01:18:03;13.85;;;8.32;;
2219;SDS011;1116;51.502;7.414;2023-12-14T01:20:33;14.57;;;8.32;;
2219;SDS011;1116;51.502;7.414;2023-12-14T01:23:04;12.65;;;8.35;;
2219;SDS011;1116;51.502;7.414;2023-12-14T01:25:36;15.98;;;9.35;;
2219;SDS011;1116;51.502;7.414;2023-12-14T01:28:06;15.82;;;9.20;;
2219;SDS011;1116;51.502;7.414;2023-12-14T01:30:36;17.38;;;9.30;;
2219;SDS011;1116;51.502;7.414;2023-12-14T01:33:09;12.85;;;8.38;;
2219;SDS011;1116;51.502;7.414;2023-12-14T01:35:40;13.32;;;8.32;;
2219;SDS011;1116;51.502;7.414;2023-12-14T01:38:10;14.25;;;8.75;;
2219;SDS011;1116;51.502;7.414;2023-12-14T01:40:40;13.43;;;8.52;;
2219;SDS011;1116;51.502;7.414;2023-12-14T01:43:10;17.90;;;7.75;;
2219;SDS011;1116;51.502;7.414;2023-12-14T01:45:41;14.70;;;8.88;;
2219;SDS011;1116;51.502;7.414;2023-12-14T01:48:13;14.85;;;9.70;;
2219;SDS011;1116;51.502;7.414;2023-12-14T01:50:44;17.08;;;8.93;;
2219;SDS011;1116;51.502;7.414;2023-12-14T01:53:14;15.82;;;8.43;;
2219;SDS011;1116;51.502;7.414;2023-12-14T01:55:44;15.75;;;9.43;;
2219;SDS011;1116;51.502;7.414;2023-12-14T01:58:14;16.17;;;9.52;;
2219;SDS011;1116;51.502;7.414;2023-12-14T02:00:46;16.90;;;8.50;;
2219;SDS011;1116;51.502;7.414;2023-12-14T02:03:27;13.82;;;7.93;;
2219;SDS011;1116;51.502;7.414;2023-12-14T02:05:57;16.20;;;9.30;;
2219;SDS011;1116;51.502;7.414;2023-12-14T02:08:28;16.67;;;8.90;;
2219;SDS011;1116;51.502;7.414;2023-12-14T02:10:58;14.23;;;8.13;;
2219;SDS011;1116;51.502;7.414;2023-12-14T02:13:28;16.27;;;8.93;;
2219;SDS011;1116;51.502;7.414;2023-12-14T02:15:58;13.48;;;7.82;;
2219;SDS011;1116;51.502;7.414;2023-12-14T02:18:31;13.98;;;8.23;;
2219;SDS011;1116;51.502;7.414;2023-12-14T02:21:01;13.82;;;8.27;;
2219;SDS011;1116;51.502;7.414;2023-12-14T02:23:35;13.38;;;7.85;;
2219;SDS011;1116;51.502;7.414;2023-12-14T02:26:12;13.50;;;7.28;;
2219;SDS011;1116;51.502;7.414;2023-12-14T02:28:43;13.63;;;8.50;;
2219;SDS011;1116;51.502;7.414;2023-12-14T02:31:13;15.85;;;8.38;;
2219;SDS011;1116;51.502;7.414;2023-12-14T02:33:43;14.35;;;8.68;;
2219;SDS011;1116;51.502;7.414;2023-12-14T02:36:13;13.88;;;7.45;;
2219;SDS011;1116;51.502;7.414;2023-12-14T02:38:46;12.55;;;6.80;;
2219;SDS011;1116;51.502;7.414;2023-12-14T02:41:16;15.55;;;8.85;;
2219;SDS011;1116;51.502;7.414;2023-12-14T02:43:47;14.98;;;7.85;;
2219;SDS011;1116;51.502;7.414;2023-12-14T02:46:17;14.55;;;8.23;;
2219;SDS011;1116;51.502;7.414;2023-12-14T02:48:47;16.23;;;8.73;;
2219;SDS011;1116;51.502;7.414;2023-12-14T02:51:17;14.73;;;8.60;;
2219;SDS011;1116;51.502;7.414;2023-12-14T02:53:50;17.23;;;9.40;;
2219;SDS011;1116;51.502;7.414;2023-12-14T02:56:20;16.67;;;9.35;;
2219;SDS011;1116;51.502;7.414;2023-12-14T02:58:50;18.95;;;9.68;;
2219;SDS011;1116;51.502;7.414;2023-12-14T03:01:20;21.05;;;10.73;;
2219;SDS011;1116;51.502;7.414;2023-12-14T03:03:50;20.48;;;11.07;;
2219;SDS011;1116;51.502;7.414;2023-12-14T03:06:21;23.15;;;10.85;;
2219;SDS011;1116;51.502;7.414;2023-12-14T03:08:53;20.35;;;10.15;;
2219;SDS011;1116;51.502;7.414;2023-12-14T03:11:24;20.83;;;10.65;;
2219;SDS011;1116;51.502;7.414;2023-12-14T03:13:54;18.92;;;9.05;;
2219;SDS011;1116;51.502;7.414;2023-12-14T03:16:25;21.15;;;10.27;;
2219;SDS011;1116;51.502;7.414;2023-12-14T03:18:55;21.23;;;10.68;;
2219;SDS011;1116;51.502;7.414;2023-12-14T03:21:25;21.50;;;11.63;;
2219;SDS011;1116;51.502;7.414;2023-12-14T03:23:58;23.13;;;11.85;;
2219;SDS011;1116;51.502;7.414;2023-12-14T03:26:28;19.30;;;10.95;;
2219;SDS011;1116;51.502;7.414;2023-12-14T03:28:58;23.13;;;11.88;;
2219;SDS011;1116;51.502;7.414;2023-12-14T03:31:28;17.40;;;10.07;;
2219;SDS011;1116;51.502;7.414;2023-12-14T03:33:58;24.10;;;11.80;;
2219;SDS011;1116;51.502;7.414;2023-12-14T03:36:29;20.85;;;11.57;;
2219;SDS011;1116;51.502;7.414;2023-12-14T03:39:02;20.40;;;11.07;;
2219;SDS011;1116;51.502;7.414;2023-12-14T03:41:32;19.83;;;10.90;;
2219;SDS011;1116;51.502;7.414;2023-12-14T03:44:02;24.02;;;11.32;;
2219;SDS011;1116;51.502;7.414;2023-12-14T03:46:33;22.83;;;10.55;;
2219;SDS011;1116;51.502;7.414;2023-12-14T03:49:03;23.42;;;11.38;;
2219;SDS011;1116;51.502;7.414;2023-12-14T03:51:31;19.75;;;9.57;;
2219;SDS011;1116;51.502;7.414;2023-12-14T03:54:04;19.23;;;11.00;;
2219;SDS011;1116;51.502;7.414;2023-12-14T03:56:34;20.27;;;10.77;;
2219;SDS011;1116;51.502;7.414;2023-12-14T03:59:05;21.35;;;10.80;;
2219;SDS011;1116;51.502;7.414;2023-12-14T04:01:35;20.10;;;10.77;;
2219;SDS011;1116;51.502;7.414;2023-12-14T04:04:06;24.10;;;11.55;;
2219;SDS011;1116;51.502;7.414;2023-12-14T04:06:36;17.90;;;9.55;;
2219;SDS011;1116;51.502;7.414;2023-12-14T04:09:09;18.67;;;10.48;;
2219;SDS011;1116;51.502;7.414;2023-12-14T04:11:39;20.65;;;9.80;;
2219;SDS011;1116;51.502;7.414;2023-12-14T04:14:09;21.00;;;11.07;;
2219;SDS011;1116;51.502;7.414;2023-12-14T04:16:40;21.25;;;9.43;;
2219;SDS011;1116;51.502;7.414;2023-12-14T04:19:10;18.85;;;9.82;;
2219;SDS011;1116;51.502;7.414;2023-12-14T04:21:40;15.70;;;8.48;;
2219;SDS011;1116;51.502;7.414;2023-12-14T04:24:13;18.45;;;9.13;;
2219;SDS011;1116;51.502;7.414;2023-12-14T04:26:43;23.08;;;10.48;;
2219;SDS011;1116;51.502;7.414;2023-12-14T04:29:13;15.65;;;8.30;;
2219;SDS011;1116;51.502;7.414;2023-12-14T04:31:43;16.35;;;9.02;;
2219;SDS011;1116;51.502;7.414;2023-12-14T04:34:13;18.95;;;8.98;;
2219;SDS011;1116;51.502;7.414;2023-12-14T04:36:45;16.15;;;8.98;;
2219;SDS011;1116;51.502;7.414;2023-12-14T04:39:18;15.88;;;8.75;;
2219;SDS011;1116;51.502;7.414;2023-12-14T04:41:48;14.05;;;7.30;;
2219;SDS011;1116;51.502;7.414;2023-12-14T04:44:18;12.90;;;7.82;;
2219;SDS011;1116;51.502;7.414;2023-12-14T04:46:49;12.73;;;6.95;;
2219;SDS011;1116;51.502;7.414;2023-12-14T04:49:19;11.63;;;6.72;;
2219;SDS011;1116;51.502;7.414;2023-12-14T04:51:50;11.73;;;6.93;;
2219;SDS011;1116;51.502;7.414;2023-12-14T04:54:22;12.02;;;6.40;;
2219;SDS011;1116;51.502;7.414;2023-12-14T04:56:53;12.23;;;6.18;;
2219;SDS011;1116;51.502;7.414;2023-12-14T04:59:23;10.65;;;6.03;;
2219;SDS011;1116;51.502;7.414;2023-12-14T05:01:53;11.40;;;6.25;;
2219;SDS011;1116;51.502;7.414;2023-12-14T05:04:23;10.63;;;6.50;;
2219;SDS011;1116;51.502;7.414;2023-12-14T05:06:54;10.95;;;6.28;;
2219;SDS011;1116;51.502;7.414;2023-12-14T05:09:26;10.60;;;6.15;;
2219;SDS011;1116;51.502;7.414;2023-12-14T05:11:57;10.55;;;6.38;;
2219;SDS011;1116;51.502;7.414;2023-12-14T05:14:27;10.20;;;5.88;;
2219;SDS011;1116;51.502;7.414;2023-12-14T05:16:57;10.90;;;6.13;;
2219;SDS011;1116;51.502;7.414;2023-12-14T05:19:27;11.02;;;6.22;;
2219;SDS011;1116;51.502;7.414;2023-12-14T05:22:01;13.02;;;7.05;;
2219;SDS011;1116;51.502;7.414;2023-12-14T05:24:34;13.32;;;7.43;;
2219;SDS011;1116;51.502;7.414;2023-12-14T05:27:04;15.98;;;7.38;;
2219;SDS011;1116;51.502;7.414;2023-12-14T05:29:34;14.63;;;8.10;;
2219;SDS011;1116;51.502;7.414;2023-12-14T05:32:04;11.88;;;7.47;;
2219;SDS011;1116;51.502;7.414;2023-12-14T05:34:35;13.93;;;6.70;;
2219;SDS011;1116;51.502;7.414;2023-12-14T05:37:05;13.65;;;7.68;;
2219;SDS011;1116;51.502;7.414;2023-12-14T05:39:38;14.88;;;6.93;;
2219;SDS011;1116;51.502;7.414;2023-12-14T05:42:11;11.98;;;6.55;;
2219;SDS011;1116;51.502;7.414;2023-12-14T05:44:45;13.82;;;6.95;;
2219;SDS011;1116;51.502;7.414;2023-12-14T05:47:15;10.75;;;6.78;;
2219;SDS011;1116;51.502;7.414;2023-12-14T05:49:45;15.20;;;7.30;;
2219;SDS011;1116;51.502;7.414;2023-12-14T05:52:15;13.48;;;7.28;;
2219;SDS011;1116;51.502;7.414;2023-12-14T05:54:48;13.73;;;7.80;;
2219;SDS011;1116;51.502;7.414;2023-12-14T05:57:18;12.23;;;7.45;;
2219;SDS011;1116;51.502;7.414;2023-12-14T05:59:49;15.75;;;7.72;;
2219;SDS011;1116;51.502;7.414;2023-12-14T06:02:20;15.23;;;7.80;;
2219;SDS011;1116;51.502;7.414;2023-12-14T06:04:50;15.85;;;8.68;;
2219;SDS011;1116;51.502;7.414;2023-12-14T06:07:20;17.15;;;8.15;;
2219;SDS011;1116;51.502;7.414;2023-12-14T06:09:53;20.08;;;9.27;;
2219;SDS011;1116;51.502;7.414;2023-12-14T06:12:23;13.93;;;8.52;;
2219;SDS011;1116;51.502;7.414;2023-12-14T06:14:53;16.88;;;9.52;;
2219;SDS011;1116;51.502;7.414;2023-12-14T06:17:23;12.50;;;7.93;;
2219;SDS011;1116;51.502;7.414;2023-12-14T06:19:56;15.15;;;8.48;;
2219;SDS011;1116;51.502;7.414;2023-12-14T06:22:26;14.55;;;8.05;;
2219;SDS011;1116;51.502;7.414;2023-12-14T06:24:59;17.02;;;8.50;;
2219;SDS011;1116;51.502;7.414;2023-12-14T06:27:29;18.48;;;9.15;;
2219;SDS011;1116;51.502;7.414;2023-12-14T06:29:59;17.52;;;9.30;;
2219;SDS011;1116;51.502;7.414;2023-12-14T06:32:29;18.75;;;8.63;;
2219;SDS011;1116;51.502;7.414;2023-12-14T06:35:00;16.30;;;9.43;;
2219;SDS011;1116;51.502;7.414;2023-12-14T06:37:30;20.20;;;10.52;;
2219;SDS011;1116;51.502;7.414;2023-12-14T06:40:03;18.95;;;10.45;;
2219;SDS011;1116;51.502;7.414;2023-12-14T06:42:35;14.77;;;9.13;;
2219;SDS011;1116;51.502;7.414;2023-12-14T06:45:06;17.92;;;9.80;;
2219;SDS011;1116;51.502;7.414;2023-12-14T06:47:38;20.77;;;10.85;;
2219;SDS011;1116;51.502;7.414;2023-12-14T06:50:10;21.02;;;10.55;;
2219;SDS011;1116;51.502;7.414;2023-12-14T06:52:40;21.23;;;11.38;;
2219;SDS011;1116;51.502;7.414;2023-12-14T06:55:14;23.13;;;11.07;;
2219;SDS011;1116;51.502;7.414;2023-12-14T06:57:44;19.60;;;10.98;;
2219;SDS011;1116;51.502;7.414;2023-12-14T07:00:15;18.55;;;9.98;;
2219;SDS011;1116;51.502;7.414;2023-12-14T07:02:45;20.92;;;11.65;;
2219;SDS011;1116;51.502;7.414;2023-12-14T07:05:16;22.75;;;11.52;;
2219;SDS011;1116;51.502;7.414;2023-12-14T07:07:46;17.23;;;10.18;;
2219;SDS011;1116;51.502;7.414;2023-12-14T07:10:20;20.65;;;11.15;;
2219;SDS011;1116;51.502;7.414;2023-12-14T07:12:50;18.42;;;9.82;;
2219;SDS011;1116;51.502;7.414;2023-12-14T07:15:20;19.48;;;9.57;;
2219;SDS011;1116;51.502;7.414;2023-12-14T07:17:50;18.73;;;10.57;;
2219;SDS011;1116;51.502;7.414;2023-12-14T07:20:20;18.83;;;11.05;;
2219;SDS011;1116;51.502;7.414;2023-12-14T07:22:51;20.83;;;10.98;;
2219;SDS011;1116;51.502;7.414;2023-12-14T07:25:24;18.73;;;10.02;;
2219;SDS011;1116;51.502;7.414;2023-12-14T07:27:54;15.30;;;9.02;;
2219;SDS011;1116;51.502;7.414;2023-12-14T07:30:24;18.02;;;8.38;;
2219;SDS011;1116;51.502;7.414;2023-12-14T07:32:54;16.77;;;8.70;;
2219;SDS011;1116;51.502;7.414;2023-12-14T07:35:24;15.10;;;8.52;;
2219;SDS011;1116;51.502;7.414;2023-12-14T07:37:54;18.52;;;10.60;;
2219;SDS011;1116;51.502;7.414;2023-12-14T07:40:27;19.42;;;11.20;;
2219;SDS011;1116;51.502;7.414;2023-12-14T07:42:58;20.35;;;9.70;;
2219;SDS011;1116;51.502;7.414;2023-12-14T07:45:28;16.35;;;8.85;;
2219;SDS011;1116;51.502;7.414;2023-12-14T07:47:58;17.25;;;9.50;;
2219;SDS011;1116;51.502;7.414;2023-12-14T07:50:28;20.10;;;11.02;;
2219;SDS011;1116;51.502;7.414;2023-12-14T07:52:58;20.02;;;11.38;;
2219;SDS011;1116;51.502;7.414;2023-12-14T07:55:31;24.73;;;11.40;;
2219;SDS011;1116;51.502;7.414;2023-12-14T07:58:02;23.95;;;11.82;;
2219;SDS011;1116;51.502;7.414;2023-12-14T08:00:34;22.30;;;11.75;;
2219;SDS011;1116;51.502;7.414;2023-12-14T08:03:04;24.17;;;11.25;;
2219;SDS011;1116;51.502;7.414;2023-12-14T08:05:34;22.10;;;11.20;;
2219;SDS011;1116;51.502;7.414;2023-12-14T08:08:04;19.80;;;10.43;;
2219;SDS011;1116;51.502;7.414;2023-12-14T08:10:38;24.88;;;13.38;;
2219;SDS011;1116;51.502;7.414;2023-12-14T08:13:08;23.85;;;12.60;;
2219;SDS011;1116;51.502;7.414;2023-12-14T08:15:38;24.00;;;12.02;;
2219;SDS011;1116;51.502;7.414;2023-12-14T08:18:08;20.67;;;11.02;;
2219;SDS011;1116;51.502;7.414;2023-12-14T08:20:39;22.13;;;11.23;;
2219;SDS011;1116;51.502;7.414;2023-12-14T08:23:10;22.98;;;11.00;;
2219;SDS011;1116;51.502;7.414;2023-12-14T08:25:43;22.70;;;11.57;;
2219;SDS011;1116;51.502;7.414;2023-12-14T08:28:13;22.05;;;11.60;;
2219;SDS011;1116;51.502;7.414;2023-12-14T08:30:43;18.83;;;10.40;;
2219;SDS011;1116;51.502;7.414;2023-12-14T08:33:13;20.42;;;10.38;;
2219;SDS011;1116;51.502;7.414;2023-12-14T08:35:43;19.65;;;11.52;;
2219;SDS011;1116;51.502;7.414;2023-12-14T08:38:13;19.30;;;11.35;;
2219;SDS011;1116;51.502;7.414;2023-12-14T08:40:46;18.98;;;11.05;;
2219;SDS011;1116;51.502;7.414;2023-12-14T08:43:17;19.48;;;10.73;;
2219;SDS011;1116;51.502;7.414;2023-12-14T08:45:47;18.67;;;11.40;;
2219;SDS011;1116;51.502;7.414;2023-12-14T08:48:17;21.60;;;9.50;;
2219;SDS011;1116;51.502;7.414;2023-12-14T08:50:48;19.42;;;9.95;;
2219;SDS011;1116;51.502;7.414;2023-12-14T08:53:18;22.25;;;11.43;;
2219;SDS011;1116;51.502;7.414;2023-12-14T08:55:50;21.15;;;10.52;;
2219;SDS011;1116;51.502;7.414;2023-12-14T08:58:21;19.33;;;10.63;;
2219;SDS011;1116;51.502;7.414;2023-12-14T09:00:51;18.15;;;10.68;;
2219;SDS011;1116;51.502;7.414;2023-12-14T09:03:21;21.23;;;10.80;;
2219;SDS011;1116;51.502;7.414;2023-12-14T09:05:53;19.67;;;11.40;;
2219;SDS011;1116;51.502;7.414;2023-12-14T09:08:25;19.15;;;11.20;;
2219;SDS011;1116;51.502;7.414;2023-12-14T09:10:57;21.38;;;11.95;;
2219;SDS011;1116;51.502;7.414;2023-12-14T09:13:28;18.58;;;9.60;;
2219;SDS011;1116;51.502;7.414;2023-12-14T09:15:58;22.98;;;11.73;;
2219;SDS011;1116;51.502;7.414;2023-12-14T09:18:28;24.23;;;11.95;;
2219;SDS011;1116;51.502;7.414;2023-12-14T09:20:58;21.92;;;10.82;;
2219;SDS011;1116;51.502;7.414;2023-12-14T09:23:29;21.77;;;12.70;;
2219;SDS011;1116;51.502;7.414;2023-12-14T09:26:02;21.73;;;11.32;;
2219;SDS011;1116;51.502;7.414;2023-12-14T09:28:33;20.95;;;11.05;;
2219;SDS011;1116;51.502;7.414;2023-12-14T09:31:04;24.10;;;12.65;;
2219;SDS011;1116;51.502;7.414;2023-12-14T09:33:34;19.52;;;10.90;;
2219;SDS011;1116;51.502;7.414;2023-12-14T09:36:06;20.40;;;12.18;;
2219;SDS011;1116;51.502;7.414;2023-12-14T09:38:36;22.42;;;12.57;;
2219;SDS011;1116;51.502;7.414;2023-12-14T09:41:09;24.63;;;14.00;;
2219;SDS011;1116;51.502;7.414;2023-12-14T09:43:39;22.15;;;11.75;;
2219;SDS011;1116;51.502;7.414;2023-12-14T09:46:10;25.05;;;13.90;;
2219;SDS011;1116;51.502;7.414;2023-12-14T09:48:41;25.92;;;13.75;;
2219;SDS011;1116;51.502;7.414;2023-12-14T09:51:11;23.77;;;12.10;;
2219;SDS011;1116;51.502;7.414;2023-12-14T09:53:42;26.83;;;14.18;;
2219;SDS011;1116;51.502;7.414;2023-12-14T09:56:14;31.52;;;14.20;;
2219;SDS011;1116;51.502;7.414;2023-12-14T09:58:44;24.33;;;13.00;;
2219;SDS011;1116;51.502;7.414;2023-12-14T10:01:20;24.52;;;12.73;;
2219;SDS011;1116;51.502;7.414;2023-12-14T10:04:04;27.38;;;14.65;;
2219;SDS011;1116;51.502;7.414;2023-12-14T10:09:09;26.27;;;12.60;;
2219;SDS011;1116;51.502;7.414;2023-12-14T10:11:45;29.42;;;14.95;;
2219;SDS011;1116;51.502;7.414;2023-12-14T10:14:19;26.88;;;13.52;;
2219;SDS011;1116;51.502;7.414;2023-12-14T10:16:51;25.48;;;12.55;;
2219;SDS011;1116;51.502;7.414;2023-12-14T10:19:29;26.90;;;13.27;;
2219;SDS011;1116;51.502;7.414;2023-12-14T10:21:59;24.48;;;13.02;;
2219;SDS011;1116;51.502;7.414;2023-12-14T10:24:32;24.05;;;12.73;;
2219;SDS011;1116;51.502;7.414;2023-12-14T10:27:07;26.75;;;14.77;;
2219;SDS011;1116;51.502;7.414;2023-12-14T10:29:37;27.90;;;13.63;;
2219;SDS011;1116;51.502;7.414;2023-12-14T10:32:08;24.40;;;13.27;;
2219;SDS011;1116;51.502;7.414;2023-12-14T10:34:38;26.88;;;13.95;;
2219;SDS011;1116;51.502;7.414;2023-12-14T10:37:09;26.40;;;12.38;;
2219;SDS011;1116;51.502;7.414;2023-12-14T10:39:41;25.48;;;14.30;;
2219;SDS011;1116;51.502;7.414;2023-12-14T10:42:15;29.00;;;14.48;;
2219;SDS011;1116;51.502;7.414;2023-12-14T10:44:48;24.65;;;13.25;;
2219;SDS011;1116;51.502;7.414;2023-12-14T10:47:43;26.73;;;13.45;;
2219;SDS011;1116;51.502;7.414;2023-12-14T10:50:14;26.55;;;13.90;;
2219;SDS011;1116;51.502;7.414;2023-12-14T10:52:45;31.08;;;15.52;;
2219;SDS011;1116;51.502;7.414;2023-12-14T10:55:18;25.60;;;13.02;;
2219;SDS011;1116;51.502;7.414;2023-12-14T10:57:57;32.50;;;15.38;;
2219;SDS011;1116;51.502;7.414;2023-12-14T11:00:27;33.60;;;14.68;;
2219;SDS011;1116;51.502;7.414;2023-12-14T11:02:58;27.40;;;13.82;;
2219;SDS011;1116;51.502;7.414;2023-12-14T11:05:29;26.35;;;13.82;;
2219;SDS011;1116;51.502;7.414;2023-12-14T11:08:01;29.17;;;14.65;;
2219;SDS011;1116;51.502;7.414;2023-12-14T11:10:37;32.25;;;14.48;;
2219;SDS011;1116;51.502;7.414;2023-12-14T11:13:11;33.00;;;14.88;;
2219;SDS011;1116;51.502;7.414;2023-12-14T11:15:45;24.90;;;12.27;;
2219;SDS011;1116;51.502;7.414;2023-12-14T11:18:19;28.90;;;14.38;;
2219;SDS011;1116;51.502;7.414;2023-12-14T11:20:49;29.95;;;14.77;;
2219;SDS011;1116;51.502;7.414;2023-12-14T11:23:31;36.45;;;15.77;;
2219;SDS011;1116;51.502;7.414;2023-12-14T11:26:06;27.00;;;14.45;;
2219;SDS011;1116;51.502;7.414;2023-12-14T11:28:41;29.95;;;13.85;;
2219;SDS011;1116;51.502;7.414;2023-12-14T11:31:12;28.30;;;13.38;;
2219;SDS011;1116;51.502;7.414;2023-12-14T11:33:42;23.08;;;13.07;;
2219;SDS011;1116;51.502;7.414;2023-12-14T11:36:14;27.00;;;12.98;;
2219;SDS011;1116;51.502;7.414;2023-12-14T11:38:45;25.77;;;13.40;;
2219;SDS011;1116;51.502;7.414;2023-12-14T11:41:20;23.77;;;12.57;;
2219;SDS011;1116;51.502;7.414;2023-12-14T11:43:54;23.98;;;12.63;;
2219;SDS011;1116;51.502;7.414;2023-12-14T11:46:24;25.35;;;13.60;;
2219;SDS011;1116;51.502;7.414;2023-12-14T11:48:55;24.25;;;12.07;;
2219;SDS011;1116;51.502;7.414;2023-12-14T11:51:30;25.40;;;12.30;;
2219;SDS011;1116;51.502;7.414;2023-12-14T11:54:03;24.67;;;12.30;;
2219;SDS011;1116;51.502;7.414;2023-12-14T11:56:34;28.75;;;13.05;;
2219;SDS011;1116;51.502;7.414;2023-12-14T11:59:07;27.23;;;12.65;;
2219;SDS011;1116;51.502;7.414;2023-12-14T12:04:23;28.75;;;15.25;;
2219;SDS011;1116;51.502;7.414;2023-12-14T12:07:00;30.65;;;15.07;;
2219;SDS011;1116;51.502;7.414;2023-12-14T12:09:33;29.67;;;15.32;;
2219;SDS011;1116;51.502;7.414;2023-12-14T12:12:05;34.45;;;16.13;;
2219;SDS011;1116;51.502;7.414;2023-12-14T12:14:39;29.13;;;15.20;;
2219;SDS011;1116;51.502;7.414;2023-12-14T12:17:10;29.92;;;15.63;;
2219;SDS011;1116;51.502;7.414;2023-12-14T12:19:42;29.73;;;15.77;;
2219;SDS011;1116;51.502;7.414;2023-12-14T12:22:12;26.73;;;13.68;;
2219;SDS011;1116;51.502;7.414;2023-12-14T12:24:42;25.20;;;13.18;;
2219;SDS011;1116;51.502;7.414;2023-12-14T12:27:18;32.58;;;15.57;;
2219;SDS011;1116;51.502;7.414;2023-12-14T12:29:48;30.67;;;13.93;;
2219;SDS011;1116;51.502;7.414;2023-12-14T12:32:20;27.42;;;13.25;;
2219;SDS011;1116;51.502;7.414;2023-12-14T12:34:51;28.25;;;13.70;;
2219;SDS011;1116;51.502;7.414;2023-12-14T12:37:24;28.35;;;14.90;;
2219;SDS011;1116;51.502;7.414;2023-12-14T12:39:55;30.25;;;13.75;;
2219;SDS011;1116;51.502;7.414;2023-12-14T12:42:25;26.27;;;14.13;;
2219;SDS011;1116;51.502;7.414;2023-12-14T12:44:58;27.50;;;14.20;;
2219;SDS011;1116;51.502;7.414;2023-12-14T12:47:28;27.55;;;14.90;;
2219;SDS011;1116;51.502;7.414;2023-12-14T12:49:59;28.60;;;15.35;;
2219;SDS011;1116;51.502;7.414;2023-12-14T12:52:29;32.28;;;15.63;;
2219;SDS011;1116;51.502;7.414;2023-12-14T12:54:59;31.23;;;15.15;;
2219;SDS011;1116;51.502;7.414;2023-12-14T12:57:30;26.25;;;14.50;;
2219;SDS011;1116;51.502;7.414;2023-12-14T13:00:04;28.27;;;14.07;;
2219;SDS011;1116;51.502;7.414;2023-12-14T13:02:38;27.48;;;14.35;;
2219;SDS011;1116;51.502;7.414;2023-12-14T13:05:08;26.88;;;13.98;;
2219;SDS011;1116;51.502;7.414;2023-12-14T13:10:14;26.88;;;13.65;;
2219;SDS011;1116;51.502;7.414;2023-12-14T13:12:57;28.95;;;13.90;;
2219;SDS011;1116;51.502;7.414;2023-12-14T13:15:29;33.20;;;14.50;;
2219;SDS011;1116;51.502;7.414;2023-12-14T13:18:00;26.55;;;14.20;;
2219;SDS011;1116;51.502;7.414;2023-12-14T13:20:31;24.15;;;13.23;;
2219;SDS011;1116;51.502;7.414;2023-12-14T13:23:02;27.15;;;14.65;;
2219;SDS011;1116;51.502;7.414;2023-12-14T13:25:32;27.05;;;14.57;;
2219;SDS011;1116;51.502;7.414;2023-12-14T13:28:03;24.05;;;12.75;;
2219;SDS011;1116;51.502;7.414;2023-12-14T13:30:36;29.98;;;15.80;;
2219;SDS011;1116;51.502;7.414;2023-12-14T13:33:07;29.42;;;14.45;;
2219;SDS011;1116;51.502;7.414;2023-12-14T13:35:38;29.50;;;14.85;;
2219;SDS011;1116;51.502;7.414;2023-12-14T13:38:09;27.77;;;14.95;;
2219;SDS011;1116;51.502;7.414;2023-12-14T13:40:40;26.60;;;13.93;;
2219;SDS011;1116;51.502;7.414;2023-12-14T13:43:10;31.27;;;15.25;;
2219;SDS011;1116;51.502;7.414;2023-12-14T13:45:43;27.25;;;14.80;;
2219;SDS011;1116;51.502;7.414;2023-12-14T13:48:27;31.83;;;14.70;;
2219;SDS011;1116;51.502;7.414;2023-12-14T13:50:58;24.35;;;13.63;;
2219;SDS011;1116;51.502;7.414;2023-12-14T13:53:28;25.83;;;13.18;;
2219;SDS011;1116;51.502;7.414;2023-12-14T13:55:59;27.20;;;13.23;;
2219;SDS011;1116;51.502;7.414;2023-12-14T13:58:29;26.38;;;12.82;;
2219;SDS011;1116;51.502;7.414;2023-12-14T14:01:03;28.08;;;14.20;;
2219;SDS011;1116;51.502;7.414;2023-12-14T14:03:35;30.35;;;13.63;;
2219;SDS011;1116;51.502;7.414;2023-12-14T14:06:05;29.60;;;14.35;;
2219;SDS011;1116;51.502;7.414;2023-12-14T14:08:36;28.23;;;14.00;;
2219;SDS011;1116;51.502;7.414;2023-12-14T14:11:06;29.20;;;15.13;;
2219;SDS011;1116;51.502;7.414;2023-12-14T14:13:36;27.05;;;13.68;;
2219;SDS011;1116;51.502;7.414;2023-12-14T14:16:09;34.53;;;16.85;;
2219;SDS011;1116;51.502;7.414;2023-12-14T14:18:39;31.75;;;15.13;;
2219;SDS011;1116;51.502;7.414;2023-12-14T14:21:09;26.75;;;13.00;;
2219;SDS011;1116;51.502;7.414;2023-12-14T14:23:40;27.50;;;13.77;;
2219;SDS011;1116;51.502;7.414;2023-12-14T14:26:10;25.65;;;13.23;;
2219;SDS011;1116;51.502;7.414;2023-12-14T14:28:40;26.92;;;12.98;;
2219;SDS011;1116;51.502;7.414;2023-12-14T14:31:13;24.77;;;12.18;;
2219;SDS011;1116;51.502;7.414;2023-12-14T14:33:43;28.13;;;13.05;;
2219;SDS011;1116;51.502;7.414;2023-12-14T14:36:14;26.88;;;13.13;;
2219;SDS011;1116;51.502;7.414;2023-12-14T14:38:45;33.90;;;13.35;;
2219;SDS011;1116;51.502;7.414;2023-12-14T14:41:16;27.58;;;13.38;;
2219;SDS011;1116;51.502;7.414;2023-12-14T14:43:48;27.92;;;14.57;;
2219;SDS011;1116;51.502;7.414;2023-12-14T14:46:21;32.22;;;14.00;;
2219;SDS011;1116;51.502;7.414;2023-12-14T14:48:51;28.77;;;14.13;;
2219;SDS011;1116;51.502;7.414;2023-12-14T14:51:21;32.25;;;13.73;;
2219;SDS011;1116;51.502;7.414;2023-12-14T14:53:53;28.17;;;14.20;;
2219;SDS011;1116;51.502;7.414;2023-12-14T14:56:23;24.98;;;12.25;;
2219;SDS011;1116;51.502;7.414;2023-12-14T14:58:53;24.20;;;13.00;;
2219;SDS011;1116;51.502;7.414;2023-12-14T15:01:26;24.05;;;11.68;;
2219;SDS011;1116;51.502;7.414;2023-12-14T15:03:56;24.50;;;11.90;;
2219;SDS011;1116;51.502;7.414;2023-12-14T15:06:27;23.80;;;11.50;;
2219;SDS011;1116;51.502;7.414;2023-12-14T15:08:57;26.48;;;12.85;;
2219;SDS011;1116;51.502;7.414;2023-12-14T15:11:27;28.85;;;13.27;;
2219;SDS011;1116;51.502;7.414;2023-12-14T15:13:57;24.13;;;12.30;;
2219;SDS011;1116;51.502;7.414;2023-12-14T15:16:30;26.33;;;13.57;;
2219;SDS011;1116;51.502;7.414;2023-12-14T15:19:00;26.85;;;13.70;;
2219;SDS011;1116;51.502;7.414;2023-12-14T15:21:30;24.08;;;12.57;;
2219;SDS011;1116;51.502;7.414;2023-12-14T15:24:00;26.58;;;13.40;;